createdAt,value
2022-08-05T00:00:00.327Z,24.40
2022-08-05T00:02:30.902Z,24.40
2022-08-05T00:04:58.957Z,24.40
2022-08-05T00:08:00.185Z,24.50
2022-08-05T00:10:17.017Z,24.50
2022-08-05T00:12:56.343Z,24.40
2022-08-05T00:15:56.135Z,24.50
2022-08-05T00:18:21.866Z,24.50
2022-08-05T00:20:50.660Z,24.60
2022-08-05T00:23:44.456Z,24.60
2022-08-05T00:26:06.359Z,24.70
2022-08-05T00:28:34.406Z,24.70
2022-08-05T00:31:04.388Z,24.70
2022-08-05T00:34:54.485Z,24.70
2022-08-05T00:37:11.567Z,24.80
2022-08-05T00:39:13.764Z,24.90
2022-08-05T00:41:55.199Z,24.90
2022-08-05T00:44:30.714Z,24.70
2022-08-05T00:47:01.990Z,24.40
2022-08-05T00:49:51.487Z,24.10
2022-08-05T00:52:28.239Z,24.00
2022-08-05T00:54:56.783Z,24.00
2022-08-05T00:57:25.433Z,24.10
2022-08-05T00:59:59.748Z,24.10
2022-08-05T01:02:27.455Z,23.70
2022-08-05T01:04:56.527Z,23.60
2022-08-05T01:07:31.702Z,23.60
2022-08-05T01:10:00.387Z,23.70
2022-08-05T01:12:29.778Z,23.80
2022-08-05T01:15:05.167Z,23.50
2022-08-05T01:17:40.067Z,23.60
2022-08-05T01:20:20.104Z,23.70
2022-08-05T01:23:14.902Z,23.80
2022-08-05T01:25:58.312Z,23.90
2022-08-05T01:28:33.752Z,23.90
2022-08-05T01:31:08.303Z,24.00
2022-08-05T01:33:42.864Z,24.00
2022-08-05T01:36:21.092Z,24.10
2022-08-05T01:39:00.190Z,24.10
2022-08-05T01:41:33.015Z,23.90
2022-08-05T01:44:03.148Z,23.90
2022-08-05T01:46:42.579Z,23.90
2022-08-05T01:49:23.605Z,23.80
2022-08-05T01:51:58.237Z,23.70
2022-08-05T01:54:30.699Z,23.60
2022-08-05T01:58:14.921Z,23.70
2022-08-05T01:59:52.284Z,23.60
2022-08-05T02:02:26.186Z,23.70
2022-08-05T02:04:59.115Z,23.80
2022-08-05T02:07:27.160Z,23.80
2022-08-05T02:09:58.803Z,23.80
2022-08-05T02:12:35.255Z,23.80
2022-08-05T02:15:12.493Z,23.90
2022-08-05T02:18:33.258Z,24.00
2022-08-05T02:20:44.963Z,24.00
2022-08-05T02:23:16.889Z,24.10
2022-08-05T02:25:49.202Z,24.00
2022-08-05T02:28:29.093Z,23.90
2022-08-05T02:31:07.553Z,24.00
2022-08-05T02:33:40.288Z,24.20
2022-08-05T02:36:13.522Z,24.20
2022-08-05T02:38:53.159Z,24.10
2022-08-05T02:41:28.671Z,24.10
2022-08-05T02:44:12.244Z,24.10
2022-08-05T02:46:58.995Z,24.00
2022-08-05T02:49:36.223Z,24.00
2022-08-05T02:52:09.291Z,24.00
2022-08-05T02:54:41.553Z,24.00
2022-08-05T02:58:10.735Z,23.40
2022-08-05T03:00:04.238Z,23.30
2022-08-05T03:02:37.688Z,23.50
2022-08-05T03:05:08.444Z,23.30
2022-08-05T03:08:00.584Z,23.40
2022-08-05T03:10:28.398Z,23.60
2022-08-05T03:15:24.585Z,23.80
2022-08-05T03:17:57.769Z,23.90
2022-08-05T03:20:26.239Z,24.00
2022-08-05T03:22:57.630Z,24.10
2022-08-05T03:25:32.786Z,24.10
2022-08-05T03:28:18.875Z,24.00
2022-08-05T03:30:48.938Z,24.20
2022-08-05T03:33:19.372Z,24.30
2022-08-05T03:35:50.162Z,24.20
2022-08-05T03:38:32.925Z,24.20
2022-08-05T03:41:08.206Z,24.20
2022-08-05T03:44:09.202Z,24.30
2022-08-05T03:46:29.511Z,24.20
2022-08-05T03:48:59.145Z,24.20
2022-08-05T03:52:36.555Z,24.30
2022-08-05T03:55:49.903Z,24.20
2022-08-05T03:57:18.144Z,24.20
2022-08-05T03:59:55.784Z,24.10
2022-08-05T04:02:39.066Z,24.10
2022-08-05T04:05:18.943Z,24.10
2022-08-05T04:07:57.553Z,24.20
2022-08-05T04:10:28.305Z,24.10
2022-08-05T04:13:00.255Z,24.10
2022-08-05T04:15:32.862Z,24.20
2022-08-05T04:18:04.047Z,24.30
2022-08-05T04:20:36.558Z,23.90
2022-08-05T04:23:04.388Z,24.00
2022-08-05T04:25:57.620Z,24.10
2022-08-05T04:28:20.674Z,24.30
2022-08-05T04:31:01.170Z,24.30
2022-08-05T04:33:54.689Z,24.20
2022-08-05T04:36:45.098Z,24.20
2022-08-05T04:39:08.581Z,24.20
2022-08-05T04:41:37.196Z,24.20
2022-08-05T04:44:09.649Z,24.10
2022-08-05T04:46:38.485Z,24.20
2022-08-05T04:49:12.219Z,24.10
2022-08-05T04:51:44.782Z,24.00
2022-08-05T04:54:14.433Z,24.00
2022-08-05T04:56:42.288Z,24.10
2022-08-05T04:59:21.681Z,24.20
2022-08-05T05:02:06.787Z,24.30
2022-08-05T05:04:43.926Z,24.30
2022-08-05T05:07:16.007Z,24.50
2022-08-05T05:09:46.567Z,24.50
2022-08-05T05:12:14.978Z,24.60
2022-08-05T05:14:50.588Z,24.60
2022-08-05T05:17:23.817Z,24.70
2022-08-05T05:19:54.829Z,24.80
2022-08-05T05:22:26.329Z,25.00
2022-08-05T05:24:56.822Z,25.20
2022-08-05T05:27:45.090Z,25.40
2022-08-05T05:30:29.565Z,25.50
2022-08-05T05:33:00.724Z,25.60
2022-08-05T05:35:37.698Z,25.50
2022-08-05T05:38:09.080Z,25.20
2022-08-05T05:40:37.559Z,24.90
2022-08-05T05:43:05.466Z,24.00
2022-08-05T05:45:36.481Z,23.70
2022-08-05T05:48:16.063Z,23.50
2022-08-05T05:50:44.599Z,23.20
2022-08-05T05:53:22.571Z,23.20
2022-08-05T05:56:00.809Z,23.10
2022-08-05T05:58:31.803Z,23.00
2022-08-05T06:01:12.161Z,23.00
2022-08-05T06:04:01.181Z,22.90
2022-08-05T06:06:31.176Z,22.90
2022-08-05T06:09:03.933Z,22.90
2022-08-05T06:11:31.930Z,23.00
2022-08-05T06:14:00.605Z,23.40
2022-08-05T06:16:32.690Z,23.80
2022-08-05T06:19:02.006Z,24.20
2022-08-05T06:21:36.548Z,24.90
2022-08-05T06:24:11.858Z,25.30
2022-08-05T06:26:51.451Z,25.70
2022-08-05T06:29:43.216Z,26.30
2022-08-05T06:32:26.066Z,26.70
2022-08-05T06:34:58.553Z,27.10
2022-08-05T06:37:56.321Z,27.60
2022-08-05T06:40:18.415Z,28.20
2022-08-05T06:42:51.858Z,28.70
2022-08-05T06:45:45.070Z,28.80
2022-08-05T06:48:44.336Z,29.30
2022-08-05T06:51:01.483Z,29.70
2022-08-05T06:53:39.141Z,29.50
2022-08-05T06:56:11.654Z,29.70
2022-08-05T06:58:54.316Z,30.20
2022-08-05T07:01:22.661Z,30.40
2022-08-05T07:03:51.101Z,30.70
2022-08-05T07:06:22.183Z,30.80
2022-08-05T07:08:55.067Z,31.20
2022-08-05T07:11:25.667Z,31.80
2022-08-05T07:14:07.802Z,32.30
2022-08-05T07:18:00.160Z,32.80
2022-08-05T07:22:30.012Z,33.20
2022-08-05T07:25:23.091Z,33.50
2022-08-05T07:27:57.133Z,34.30
2022-08-05T07:30:32.580Z,34.70
2022-08-05T07:33:01.150Z,35.30
2022-08-05T07:36:03.729Z,35.40
2022-08-05T07:38:32.037Z,35.90
2022-08-05T07:42:08.517Z,34.80
2022-08-05T07:43:57.009Z,35.40
2022-08-05T07:46:27.049Z,35.10
2022-08-05T07:49:03.350Z,34.80
2022-08-05T07:51:37.018Z,35.30
2022-08-05T07:54:08.359Z,36.30
2022-08-05T07:57:00.003Z,37.30
2022-08-05T07:59:39.675Z,38.30
2022-08-05T08:02:10.659Z,39.10
2022-08-05T08:04:49.903Z,40.00
2022-08-05T08:07:22.456Z,40.60
2022-08-05T08:09:53.118Z,39.10
2022-08-05T08:12:37.024Z,39.10
2022-08-05T08:15:15.699Z,40.10
2022-08-05T08:17:49.934Z,40.70
2022-08-05T08:21:00.453Z,40.10
2022-08-05T08:23:59.683Z,39.90
2022-08-05T08:26:00.611Z,39.60
2022-08-05T08:28:36.926Z,39.10
2022-08-05T08:31:14.876Z,38.80
2022-08-05T08:33:45.950Z,38.90
2022-08-05T08:36:48.908Z,38.10
2022-08-05T08:39:02.503Z,38.80
2022-08-05T08:41:52.459Z,38.50
2022-08-05T08:45:18.560Z,38.90
2022-08-05T08:47:21.717Z,40.20
2022-08-05T08:50:30.381Z,38.60
2022-08-05T08:52:57.457Z,38.70
2022-08-05T08:56:02.177Z,39.90
2022-08-05T08:58:37.061Z,40.90
2022-08-05T09:01:15.633Z,41.60
2022-08-05T09:03:55.712Z,41.80
2022-08-05T09:06:29.249Z,42.80
2022-08-05T09:08:59.085Z,42.20
2022-08-05T09:11:52.477Z,42.30
2022-08-05T09:14:58.531Z,43.00
2022-08-05T09:17:03.019Z,43.50
2022-08-05T09:20:01.507Z,43.70
2022-08-05T09:22:31.836Z,43.90
2022-08-05T09:25:13.902Z,44.30
2022-08-05T09:28:05.388Z,44.50
2022-08-05T09:30:34.941Z,44.70
2022-08-05T09:33:04.799Z,44.60
2022-08-05T09:35:34.026Z,44.70
2022-08-05T09:38:12.793Z,44.50
2022-08-05T09:40:53.743Z,44.60
2022-08-05T09:43:41.277Z,42.60
2022-08-05T09:46:27.927Z,42.80
2022-08-05T09:49:07.039Z,42.90
2022-08-05T09:51:39.970Z,43.60
2022-08-05T09:54:09.293Z,44.40
2022-08-05T09:56:39.239Z,45.00
2022-08-05T09:59:08.914Z,45.40
2022-08-05T10:01:45.762Z,45.60
2022-08-05T10:04:16.169Z,45.70
2022-08-05T10:06:59.547Z,45.70
2022-08-05T10:09:29.474Z,44.90
2022-08-05T10:12:18.932Z,45.10
2022-08-05T10:15:16.184Z,45.30
2022-08-05T10:18:05.721Z,45.30
2022-08-05T10:20:37.087Z,45.50
2022-08-05T10:23:08.890Z,45.20
2022-08-05T10:26:13.986Z,44.60
2022-08-05T10:28:48.352Z,44.70
2022-08-05T10:32:54.586Z,44.70
2022-08-05T10:34:09.381Z,44.50
2022-08-05T10:36:39.201Z,43.80
2022-08-05T10:39:25.098Z,43.90
2022-08-05T10:42:14.418Z,44.00
2022-08-05T10:44:47.759Z,44.40
2022-08-05T10:47:26.779Z,44.00
2022-08-05T10:50:33.035Z,43.50
2022-08-05T10:52:58.721Z,43.50
2022-08-05T10:55:30.343Z,43.30
2022-08-05T10:58:09.536Z,43.40
2022-08-05T11:00:42.251Z,43.00
2022-08-05T11:03:25.889Z,42.80
2022-08-05T11:06:15.070Z,43.20
2022-08-05T11:09:16.679Z,43.60
2022-08-05T11:11:53.685Z,43.80
2022-08-05T11:15:01.153Z,43.80
2022-08-05T11:17:57.369Z,44.10
2022-08-05T11:20:44.165Z,44.40
2022-08-05T11:23:33.668Z,44.70
2022-08-05T11:26:28.751Z,45.00
2022-08-05T11:29:11.879Z,45.00
2022-08-05T11:31:57.769Z,45.30
2022-08-05T11:34:51.995Z,45.30
2022-08-05T11:38:37.211Z,45.30
2022-08-05T11:41:12.896Z,45.70
2022-08-05T11:44:05.094Z,45.50
2022-08-05T11:46:58.464Z,45.20
2022-08-05T11:49:34.118Z,45.70
2022-08-05T11:52:08.391Z,45.80
2022-08-05T11:54:40.409Z,45.60
2022-08-05T11:57:25.196Z,45.70
2022-08-05T11:59:53.800Z,45.40
2022-08-05T12:02:32.848Z,45.10
2022-08-05T12:05:07.821Z,45.00
2022-08-05T12:08:08.028Z,45.00
2022-08-05T12:10:42.997Z,44.90
2022-08-05T12:13:16.766Z,44.60
2022-08-05T12:15:50.253Z,44.60
2022-08-05T12:18:32.615Z,43.70
2022-08-05T12:21:11.273Z,43.40
2022-08-05T12:23:43.239Z,43.20
2022-08-05T12:26:16.851Z,42.90
2022-08-05T12:28:47.856Z,42.70
2022-08-05T12:31:23.312Z,41.70
2022-08-05T12:34:04.125Z,41.50
2022-08-05T12:36:35.830Z,41.80
2022-08-05T12:39:07.053Z,41.90
2022-08-05T12:41:43.865Z,41.30
2022-08-05T12:44:14.194Z,40.90
2022-08-05T12:46:45.602Z,40.00
2022-08-05T12:49:19.127Z,39.50
2022-08-05T12:52:14.393Z,39.10
2022-08-05T12:54:37.394Z,38.60
2022-08-05T12:57:09.718Z,38.40
2022-08-05T13:01:58.594Z,38.30
2022-08-05T13:02:39.854Z,38.30
2022-08-05T13:05:12.695Z,37.90
2022-08-05T13:08:00.641Z,37.80
2022-08-05T13:10:32.869Z,37.50
2022-08-05T13:13:00.671Z,37.30
2022-08-05T13:15:35.911Z,37.10
2022-08-05T13:18:23.987Z,37.10
2022-08-05T13:20:53.258Z,36.80
2022-08-05T13:23:22.884Z,36.70
2022-08-05T13:25:59.610Z,36.40
2022-08-05T13:28:29.621Z,36.50
2022-08-05T13:31:11.158Z,36.20
2022-08-05T13:34:22.600Z,36.50
2022-08-05T13:36:33.264Z,36.50
2022-08-05T13:39:01.290Z,36.40
2022-08-05T13:41:37.762Z,36.40
2022-08-05T13:44:06.331Z,36.00
2022-08-05T13:46:44.014Z,35.90
2022-08-05T13:49:21.924Z,35.90
2022-08-05T13:51:51.020Z,35.60
2022-08-05T13:54:25.128Z,35.40
2022-08-05T13:56:53.767Z,35.30
2022-08-05T13:59:24.085Z,35.20
2022-08-05T14:01:58.242Z,35.10
2022-08-05T14:04:43.627Z,35.00
2022-08-05T14:07:56.853Z,35.00
2022-08-05T14:10:09.535Z,35.00
2022-08-05T14:12:37.491Z,34.90
2022-08-05T14:16:08.908Z,34.70
2022-08-05T14:17:59.708Z,34.60
2022-08-05T14:20:29.350Z,34.70
2022-08-05T14:22:58.410Z,34.40
2022-08-05T14:25:28.050Z,34.20
2022-08-05T14:27:56.587Z,34.00
2022-08-05T14:30:28.166Z,33.70
2022-08-05T14:32:56.740Z,33.60
2022-08-05T14:35:37.075Z,33.40
2022-08-05T14:38:32.937Z,33.30
2022-08-05T14:41:03.614Z,33.20
2022-08-05T14:44:00.258Z,33.20
2022-08-05T14:46:22.724Z,32.90
2022-08-05T14:48:57.127Z,32.80
2022-08-05T14:51:25.361Z,32.80
2022-08-05T14:54:26.450Z,32.70
2022-08-05T14:56:48.787Z,32.60
2022-08-05T14:59:21.209Z,32.50
2022-08-05T15:01:49.917Z,32.50
2022-08-05T15:04:20.533Z,32.30
2022-08-05T15:06:49.323Z,32.50
2022-08-05T15:09:51.919Z,32.50
2022-08-05T15:12:26.761Z,32.50
2022-08-05T15:14:56.063Z,32.40
2022-08-05T15:17:46.162Z,32.20
2022-08-05T15:20:18.944Z,32.30
2022-08-05T15:22:54.238Z,32.30
2022-08-05T15:25:41.023Z,32.30
2022-08-05T15:28:15.786Z,32.20
2022-08-05T15:30:45.859Z,32.30
2022-08-05T15:34:18.848Z,32.20
2022-08-05T15:36:04.525Z,32.10
2022-08-05T15:38:36.424Z,32.00
2022-08-05T15:41:20.941Z,32.00
2022-08-05T15:43:51.572Z,32.00
2022-08-05T15:46:20.606Z,32.10
2022-08-05T15:48:58.937Z,32.10
2022-08-05T15:52:14.019Z,31.90
2022-08-05T15:54:18.505Z,31.80
2022-08-05T15:56:47.642Z,31.70
2022-08-05T15:59:21.790Z,31.70
2022-08-05T16:01:52.885Z,31.70
2022-08-05T16:04:25.444Z,31.70
2022-08-05T16:06:54.171Z,31.70
2022-08-05T16:09:24.629Z,31.70
2022-08-05T16:11:54.318Z,31.50
2022-08-05T16:14:22.512Z,31.40
2022-08-05T16:16:53.639Z,31.30
2022-08-05T16:20:03.325Z,31.20
2022-08-05T16:22:10.577Z,31.10
2022-08-05T16:24:41.935Z,31.10
2022-08-05T16:27:32.074Z,31.00
2022-08-05T16:30:23.353Z,30.90
2022-08-05T16:32:54.827Z,30.80
2022-08-05T16:35:27.738Z,30.60
2022-08-05T16:38:15.889Z,30.50
2022-08-05T16:40:52.115Z,30.40
2022-08-05T16:43:26.275Z,30.30
2022-08-05T16:46:07.488Z,30.30
2022-08-05T16:48:40.961Z,30.30
2022-08-05T16:51:11.439Z,30.30
2022-08-05T16:54:05.650Z,30.20
2022-08-05T16:56:31.297Z,30.20
2022-08-05T16:59:07.553Z,30.10
2022-08-05T17:01:52.801Z,30.10
2022-08-05T17:04:26.542Z,30.10
2022-08-05T17:06:56.930Z,30.00
2022-08-05T17:09:28.163Z,30.00
2022-08-05T17:11:59.261Z,30.00
2022-08-05T17:14:36.773Z,29.80
2022-08-05T17:17:14.358Z,29.80
2022-08-05T17:19:46.110Z,29.70
2022-08-05T17:22:17.783Z,29.40
2022-08-05T17:24:57.525Z,29.10
2022-08-05T17:27:33.687Z,28.80
2022-08-05T17:30:12.160Z,28.60
2022-08-05T17:32:50.672Z,28.40
2022-08-05T17:35:20.871Z,28.30
2022-08-05T17:37:49.484Z,27.90
2022-08-05T17:40:22.556Z,27.80
2022-08-05T17:42:52.927Z,27.50
2022-08-05T17:45:24.756Z,27.40
2022-08-05T17:47:55.358Z,27.40
2022-08-05T17:50:28.606Z,27.30
2022-08-05T17:52:59.715Z,27.20
2022-08-05T17:55:37.376Z,27.20
2022-08-05T17:58:12.520Z,27.10
2022-08-05T18:00:47.104Z,26.90
2022-08-05T18:03:48.332Z,26.90
2022-08-05T18:06:12.085Z,26.80
2022-08-05T18:08:45.487Z,26.80
2022-08-05T18:11:24.390Z,26.90
2022-08-05T18:14:04.252Z,26.90
2022-08-05T18:16:34.615Z,26.80
2022-08-05T18:19:03.187Z,26.80
2022-08-05T18:22:07.409Z,26.50
2022-08-05T18:24:18.944Z,26.50
2022-08-05T18:26:48.930Z,26.60
2022-08-05T18:29:16.931Z,26.70
2022-08-05T18:31:46.532Z,26.50
2022-08-05T18:34:17.741Z,26.50
2022-08-05T18:36:49.940Z,26.50
2022-08-05T18:39:41.765Z,26.60
2022-08-05T18:42:10.864Z,26.60
2022-08-05T18:44:51.403Z,26.30
2022-08-05T18:47:26.426Z,26.30
2022-08-05T18:50:10.810Z,26.40
2022-08-05T18:52:41.758Z,26.10
2022-08-05T18:55:19.801Z,26.10
2022-08-05T18:57:53.349Z,26.10
2022-08-05T19:00:28.580Z,26.20
2022-08-05T19:03:03.976Z,26.10
2022-08-05T19:06:11.984Z,25.70
2022-08-05T19:08:22.116Z,25.60
2022-08-05T19:11:04.585Z,25.70
2022-08-05T19:13:35.926Z,25.80
2022-08-05T19:16:05.849Z,26.00
2022-08-05T19:18:56.842Z,26.00
2022-08-05T19:21:27.628Z,26.00
2022-08-05T19:24:08.072Z,26.10
2022-08-05T19:26:54.362Z,26.10
2022-08-05T19:29:23.644Z,26.10
2022-08-05T19:31:54.492Z,25.90
2022-08-05T19:34:26.764Z,25.90
2022-08-05T19:36:54.532Z,25.90
2022-08-05T19:39:23.077Z,25.80
2022-08-05T19:42:07.309Z,25.80
2022-08-05T19:44:45.035Z,25.70
2022-08-05T19:47:15.343Z,25.60
2022-08-05T19:49:48.875Z,25.50
2022-08-05T19:52:31.242Z,25.50
2022-08-05T19:55:06.805Z,25.50
2022-08-05T19:57:49.256Z,25.40
2022-08-05T20:00:23.637Z,25.30
2022-08-05T20:02:52.297Z,25.10
2022-08-05T20:05:24.364Z,25.20
2022-08-05T20:07:57.662Z,25.20
2022-08-05T20:10:30.681Z,25.20
2022-08-05T20:13:01.061Z,25.20
2022-08-05T20:15:51.819Z,25.30
2022-08-05T20:18:32.793Z,25.20
2022-08-05T20:21:05.126Z,25.20
2022-08-05T20:23:39.818Z,25.10
2022-08-05T20:26:20.476Z,25.10
2022-08-05T20:28:57.654Z,25.00
2022-08-05T20:31:42.252Z,25.00
2022-08-05T20:34:19.474Z,24.90
2022-08-05T20:36:49.340Z,24.90
2022-08-05T20:39:17.949Z,24.90
2022-08-05T20:41:48.318Z,25.00
2022-08-05T20:44:30.638Z,24.90
2022-08-05T20:47:00.121Z,24.90
2022-08-05T20:49:28.097Z,24.70
2022-08-05T20:51:58.389Z,24.80
2022-08-05T20:54:43.079Z,24.80
2022-08-05T20:57:42.157Z,24.80
2022-08-05T21:00:19.706Z,24.90
2022-08-05T21:02:54.362Z,24.90
2022-08-05T21:05:24.964Z,24.90
2022-08-05T21:07:54.061Z,24.90
2022-08-05T21:10:24.233Z,24.80
2022-08-05T21:13:08.791Z,24.90
2022-08-05T21:15:44.473Z,24.90
2022-08-05T21:18:18.824Z,24.90
2022-08-05T21:20:46.584Z,24.90
2022-08-05T21:23:16.945Z,24.90
2022-08-05T21:25:45.247Z,24.90
2022-08-05T21:28:13.197Z,24.90
2022-08-05T21:30:46.424Z,24.80
2022-08-05T21:33:22.261Z,24.70
2022-08-05T21:35:55.710Z,24.50
2022-08-05T21:38:29.020Z,24.50
2022-08-05T21:40:56.899Z,24.50
2022-08-05T21:43:25.652Z,24.50
2022-08-05T21:45:57.972Z,24.50
2022-08-05T21:48:28.830Z,24.50
2022-08-05T21:50:57.399Z,24.50
2022-08-05T21:53:27.581Z,24.50
2022-08-05T21:56:09.920Z,24.50
2022-08-05T21:58:56.929Z,24.30
2022-08-05T22:01:25.928Z,24.30
2022-08-05T22:03:54.124Z,24.40
2022-08-05T22:06:35.451Z,24.40
2022-08-05T22:09:13.912Z,24.30
2022-08-05T22:11:47.030Z,24.40
2022-08-05T22:14:35.093Z,24.40
2022-08-05T22:17:07.432Z,24.30
2022-08-05T22:20:01.230Z,24.30
2022-08-05T22:22:28.038Z,24.10
2022-08-05T22:25:21.327Z,24.10
2022-08-05T22:28:10.258Z,24.20
2022-08-05T22:30:55.252Z,24.30
2022-08-05T22:33:55.939Z,24.40
2022-08-05T22:36:15.154Z,24.40
2022-08-05T22:38:48.112Z,24.30
2022-08-05T22:42:04.669Z,24.40
2022-08-05T22:44:07.512Z,24.30
2022-08-05T22:46:40.131Z,24.30
2022-08-05T22:49:12.224Z,24.30
2022-08-05T22:52:04.448Z,24.30
2022-08-05T22:54:36.399Z,24.40
2022-08-05T22:57:04.449Z,24.30
2022-08-05T22:59:45.874Z,24.30
2022-08-05T23:02:18.591Z,24.30
2022-08-05T23:04:57.100Z,24.30
2022-08-05T23:07:26.015Z,24.30
2022-08-05T23:10:01.203Z,24.20
2022-08-05T23:12:32.507Z,24.30
2022-08-05T23:15:03.459Z,24.20
2022-08-05T23:17:34.419Z,24.30
2022-08-05T23:20:15.553Z,24.10
2022-08-05T23:22:47.595Z,24.10
2022-08-05T23:25:51.089Z,24.10
2022-08-05T23:28:06.913Z,24.10
2022-08-05T23:30:40.326Z,24.10
2022-08-05T23:33:22.345Z,24.10
2022-08-05T23:35:55.969Z,24.10
2022-08-05T23:38:25.713Z,23.90
2022-08-05T23:40:53.427Z,24.00
2022-08-05T23:43:25.285Z,24.00
2022-08-05T23:46:19.891Z,23.90
2022-08-05T23:48:59.794Z,23.70
2022-08-05T23:51:54.218Z,23.70
2022-08-05T23:54:25.837Z,23.60
2022-08-05T23:56:54.893Z,23.70
2022-08-05T23:59:27.773Z,23.60
